Route Details

Aircraft Information
Group: North America Fleet
Types: B738, B752, B762, B763
Route Data
Distance: 2209nm
Duration: 5h 09m
Origin METAR: KSEA 010553Z 15004KT 10SM OVC100 03/M04 A3016 RMK AO2 SLP222 T00331039 10044 20028 55001
Dest. METAR: KLAL 010615Z AUTO 00000KT 10SM SCT055 17/16 A3018 RMK AO2 T01650158
Freight Data
(for Feb 1, 2023)
Load Factor:
35%
Manifested Cargo: 27,916lbs
Financial History
Total Freight: 0lbs
Average Load: 0lbs/flt
Fuel Used: 0lbs
Avg. Fuel Used: 0lbs/flt
Fuel Expense: $0
Avg. Fuel Expense: $0
Avg. Fuel Cost: $0/lbs
Total Gross Income: $0
Pilot Pay: $0
Total Expenses: $0
Total Revenue: $0
Average Revenue: $0

Capitol Logistics 394




KSEA
Seattle-Tacoma International Airport
Seattle, Washington
KLAL
Lakeland Linder Regional Airport
Lakeland, Florida

Activity Log

Date Flight Route Aircraft Duration
No Flights Yet